オスロ の空港の天気 - METARとTAF

オスロ空港 ( ENGM / OSL ) - ノルウェー アーケシュフース県オスロ
飛行場実況気象(Metar)
観測時間01/20 18:20 CET (01/20 17:20 UTC)
風向・風速不定 1m/s
視程10km以上
天気現象
なし
気温6℃
湿度61%
気圧1022hPa
METARENGM 201720Z VRB02KT CAVOK 06/M01 Q1022 NOSIG
過去の天気等 Google飛行場航空写真 Wunderground天気予報

過去48時間のMETAR

飛行場予報(TAF)
発表時間: -
TAF ENGM 2018/2118 35005KT CAVOK